sensor_id;sensor_type;location;lat;lon;timestamp;P1;durP1;ratioP1;P2;durP2;ratioP2
74538;SDS011;66042;51.090;-115.340;2023-09-30T00:00:07;0.90;;;0.40;;
74538;SDS011;66042;51.090;-115.340;2023-09-30T00:02:34;1.00;;;0.40;;
74538;SDS011;66042;51.090;-115.340;2023-09-30T00:05:01;0.80;;;0.30;;
74538;SDS011;66042;51.090;-115.340;2023-09-30T00:07:29;0.80;;;0.30;;
74538;SDS011;66042;51.090;-115.340;2023-09-30T00:09:56;0.90;;;0.30;;
74538;SDS011;66042;51.090;-115.340;2023-09-30T00:12:22;1.70;;;0.40;;
74538;SDS011;66042;51.090;-115.340;2023-09-30T00:14:49;1.70;;;0.30;;
74538;SDS011;66042;51.090;-115.340;2023-09-30T00:17:16;0.90;;;0.30;;
74538;SDS011;66042;51.090;-115.340;2023-09-30T00:19:44;1.30;;;0.30;;
74538;SDS011;66042;51.090;-115.340;2023-09-30T00:22:11;1.90;;;0.40;;
74538;SDS011;66042;51.090;-115.340;2023-09-30T00:24:37;1.10;;;0.50;;
74538;SDS011;66042;51.090;-115.340;2023-09-30T00:27:04;0.80;;;0.40;;
74538;SDS011;66042;51.090;-115.340;2023-09-30T00:29:31;1.80;;;0.40;;
74538;SDS011;66042;51.090;-115.340;2023-09-30T00:31:58;1.30;;;0.50;;
74538;SDS011;66042;51.090;-115.340;2023-09-30T00:34:25;0.90;;;0.30;;
74538;SDS011;66042;51.090;-115.340;2023-09-30T00:36:52;1.60;;;0.30;;
74538;SDS011;66042;51.090;-115.340;2023-09-30T00:39:19;1.10;;;0.30;;
74538;SDS011;66042;51.090;-115.340;2023-09-30T00:41:46;2.00;;;1.00;;
74538;SDS011;66042;51.090;-115.340;2023-09-30T00:44:13;1.40;;;0.40;;
74538;SDS011;66042;51.090;-115.340;2023-09-30T00:46:40;1.00;;;0.40;;
74538;SDS011;66042;51.090;-115.340;2023-09-30T00:49:08;1.20;;;0.40;;
74538;SDS011;66042;51.090;-115.340;2023-09-30T00:51:36;1.20;;;0.50;;
74538;SDS011;66042;51.090;-115.340;2023-09-30T00:54:04;1.60;;;0.50;;
74538;SDS011;66042;51.090;-115.340;2023-09-30T00:56:32;1.90;;;0.40;;
74538;SDS011;66042;51.090;-115.340;2023-09-30T00:59:00;1.80;;;0.50;;
74538;SDS011;66042;51.090;-115.340;2023-09-30T01:01:27;1.30;;;0.50;;
74538;SDS011;66042;51.090;-115.340;2023-09-30T01:03:54;0.90;;;0.40;;
74538;SDS011;66042;51.090;-115.340;2023-09-30T01:06:21;1.10;;;0.50;;
74538;SDS011;66042;51.090;-115.340;2023-09-30T01:08:48;2.00;;;1.00;;
74538;SDS011;66042;51.090;-115.340;2023-09-30T01:11:14;2.20;;;1.10;;
74538;SDS011;66042;51.090;-115.340;2023-09-30T01:13:42;1.70;;;0.60;;
74538;SDS011;66042;51.090;-115.340;2023-09-30T01:16:10;2.60;;;1.40;;
74538;SDS011;66042;51.090;-115.340;2023-09-30T01:18:39;8.30;;;4.70;;
74538;SDS011;66042;51.090;-115.340;2023-09-30T01:21:09;4.10;;;1.40;;
74538;SDS011;66042;51.090;-115.340;2023-09-30T01:23:36;8.30;;;4.50;;
74538;SDS011;66042;51.090;-115.340;2023-09-30T01:26:10;3.90;;;1.50;;
74538;SDS011;66042;51.090;-115.340;2023-09-30T01:28:41;4.10;;;1.80;;
74538;SDS011;66042;51.090;-115.340;2023-09-30T01:31:08;2.00;;;1.00;;
74538;SDS011;66042;51.090;-115.340;2023-09-30T01:33:34;2.00;;;0.70;;
74538;SDS011;66042;51.090;-115.340;2023-09-30T01:36:02;1.00;;;0.50;;
74538;SDS011;66042;51.090;-115.340;2023-09-30T01:38:29;1.10;;;0.40;;
74538;SDS011;66042;51.090;-115.340;2023-09-30T01:40:56;1.20;;;0.60;;
74538;SDS011;66042;51.090;-115.340;2023-09-30T01:43:22;1.20;;;0.30;;
74538;SDS011;66042;51.090;-115.340;2023-09-30T01:45:49;4.50;;;2.00;;
74538;SDS011;66042;51.090;-115.340;2023-09-30T01:48:16;1.80;;;0.60;;
74538;SDS011;66042;51.090;-115.340;2023-09-30T01:50:43;1.40;;;0.50;;
74538;SDS011;66042;51.090;-115.340;2023-09-30T01:53:11;1.50;;;0.70;;
74538;SDS011;66042;51.090;-115.340;2023-09-30T01:55:38;1.20;;;0.50;;
74538;SDS011;66042;51.090;-115.340;2023-09-30T01:58:05;1.60;;;0.40;;
74538;SDS011;66042;51.090;-115.340;2023-09-30T02:00:33;4.40;;;1.30;;
74538;SDS011;66042;51.090;-115.340;2023-09-30T02:03:01;1.90;;;0.80;;
74538;SDS011;66042;51.090;-115.340;2023-09-30T02:05:28;1.00;;;0.50;;
74538;SDS011;66042;51.090;-115.340;2023-09-30T02:07:55;1.10;;;0.30;;
74538;SDS011;66042;51.090;-115.340;2023-09-30T02:10:22;1.00;;;0.40;;
74538;SDS011;66042;51.090;-115.340;2023-09-30T02:12:49;2.90;;;0.60;;
74538;SDS011;66042;51.090;-115.340;2023-09-30T02:15:16;1.70;;;0.50;;
74538;SDS011;66042;51.090;-115.340;2023-09-30T02:17:43;2.00;;;0.40;;
74538;SDS011;66042;51.090;-115.340;2023-09-30T02:20:12;1.50;;;0.80;;
74538;SDS011;66042;51.090;-115.340;2023-09-30T02:22:42;5.60;;;2.40;;
74538;SDS011;66042;51.090;-115.340;2023-09-30T02:25:13;7.80;;;4.20;;
74538;SDS011;66042;51.090;-115.340;2023-09-30T02:27:41;10.20;;;4.60;;
74538;SDS011;66042;51.090;-115.340;2023-09-30T02:30:11;5.40;;;2.40;;
74538;SDS011;66042;51.090;-115.340;2023-09-30T02:32:40;4.00;;;1.10;;
74538;SDS011;66042;51.090;-115.340;2023-09-30T02:35:07;2.70;;;0.80;;
74538;SDS011;66042;51.090;-115.340;2023-09-30T02:37:40;7.70;;;1.90;;
74538;SDS011;66042;51.090;-115.340;2023-09-30T02:40:07;3.80;;;1.10;;
74538;SDS011;66042;51.090;-115.340;2023-09-30T02:42:38;1.80;;;0.70;;
74538;SDS011;66042;51.090;-115.340;2023-09-30T02:45:06;2.70;;;0.60;;
74538;SDS011;66042;51.090;-115.340;2023-09-30T02:47:34;2.20;;;0.40;;
74538;SDS011;66042;51.090;-115.340;2023-09-30T02:50:04;1.90;;;0.70;;
74538;SDS011;66042;51.090;-115.340;2023-09-30T02:52:34;1.40;;;0.50;;
74538;SDS011;66042;51.090;-115.340;2023-09-30T02:55:02;1.70;;;0.40;;
74538;SDS011;66042;51.090;-115.340;2023-09-30T02:57:29;2.20;;;0.70;;
74538;SDS011;66042;51.090;-115.340;2023-09-30T02:59:57;2.00;;;0.60;;
74538;SDS011;66042;51.090;-115.340;2023-09-30T03:02:26;1.80;;;0.60;;
74538;SDS011;66042;51.090;-115.340;2023-09-30T03:04:55;3.10;;;0.90;;
74538;SDS011;66042;51.090;-115.340;2023-09-30T03:07:24;1.70;;;0.70;;
74538;SDS011;66042;51.090;-115.340;2023-09-30T03:09:51;2.30;;;0.60;;
74538;SDS011;66042;51.090;-115.340;2023-09-30T03:12:20;3.00;;;0.70;;
74538;SDS011;66042;51.090;-115.340;2023-09-30T03:14:47;1.40;;;0.60;;
74538;SDS011;66042;51.090;-115.340;2023-09-30T03:17:14;2.50;;;0.60;;
74538;SDS011;66042;51.090;-115.340;2023-09-30T03:19:41;2.10;;;0.70;;
74538;SDS011;66042;51.090;-115.340;2023-09-30T03:22:08;2.70;;;0.70;;
74538;SDS011;66042;51.090;-115.340;2023-09-30T03:24:39;3.40;;;1.00;;
74538;SDS011;66042;51.090;-115.340;2023-09-30T03:27:07;4.30;;;1.30;;
74538;SDS011;66042;51.090;-115.340;2023-09-30T03:29:36;4.70;;;1.40;;
74538;SDS011;66042;51.090;-115.340;2023-09-30T03:32:04;5.20;;;1.40;;
74538;SDS011;66042;51.090;-115.340;2023-09-30T03:34:31;4.90;;;1.70;;
74538;SDS011;66042;51.090;-115.340;2023-09-30T03:36:58;8.20;;;1.70;;
74538;SDS011;66042;51.090;-115.340;2023-09-30T03:39:25;5.30;;;1.70;;
74538;SDS011;66042;51.090;-115.340;2023-09-30T03:41:55;5.80;;;1.70;;
74538;SDS011;66042;51.090;-115.340;2023-09-30T03:44:25;4.20;;;1.60;;
74538;SDS011;66042;51.090;-115.340;2023-09-30T03:46:52;3.90;;;0.90;;
74538;SDS011;66042;51.090;-115.340;2023-09-30T03:49:19;4.80;;;1.10;;
74538;SDS011;66042;51.090;-115.340;2023-09-30T03:51:47;4.90;;;1.10;;
74538;SDS011;66042;51.090;-115.340;2023-09-30T03:54:17;4.10;;;1.30;;
74538;SDS011;66042;51.090;-115.340;2023-09-30T03:56:45;2.50;;;1.00;;
74538;SDS011;66042;51.090;-115.340;2023-09-30T03:59:13;2.00;;;0.80;;
74538;SDS011;66042;51.090;-115.340;2023-09-30T04:01:41;5.70;;;0.90;;
74538;SDS011;66042;51.090;-115.340;2023-09-30T04:04:08;3.70;;;1.40;;
74538;SDS011;66042;51.090;-115.340;2023-09-30T04:06:36;4.90;;;1.40;;
74538;SDS011;66042;51.090;-115.340;2023-09-30T04:09:06;3.90;;;1.00;;
74538;SDS011;66042;51.090;-115.340;2023-09-30T04:11:37;6.00;;;1.40;;
74538;SDS011;66042;51.090;-115.340;2023-09-30T04:14:07;3.80;;;1.40;;
74538;SDS011;66042;51.090;-115.340;2023-09-30T04:16:35;3.90;;;1.10;;
74538;SDS011;66042;51.090;-115.340;2023-09-30T04:19:03;2.70;;;0.90;;
74538;SDS011;66042;51.090;-115.340;2023-09-30T04:21:30;4.00;;;1.40;;
74538;SDS011;66042;51.090;-115.340;2023-09-30T04:24:00;5.90;;;1.50;;
74538;SDS011;66042;51.090;-115.340;2023-09-30T04:26:27;4.20;;;1.00;;
74538;SDS011;66042;51.090;-115.340;2023-09-30T04:28:56;3.50;;;1.00;;
74538;SDS011;66042;51.090;-115.340;2023-09-30T04:31:23;4.70;;;1.30;;
74538;SDS011;66042;51.090;-115.340;2023-09-30T04:33:50;4.70;;;1.40;;
74538;SDS011;66042;51.090;-115.340;2023-09-30T04:36:17;5.10;;;1.10;;
74538;SDS011;66042;51.090;-115.340;2023-09-30T04:38:45;3.90;;;1.60;;
74538;SDS011;66042;51.090;-115.340;2023-09-30T04:41:12;4.40;;;1.30;;
74538;SDS011;66042;51.090;-115.340;2023-09-30T04:43:39;2.60;;;1.00;;
74538;SDS011;66042;51.090;-115.340;2023-09-30T04:46:06;3.90;;;0.90;;
74538;SDS011;66042;51.090;-115.340;2023-09-30T04:48:34;4.90;;;1.40;;
74538;SDS011;66042;51.090;-115.340;2023-09-30T04:51:01;3.80;;;1.10;;
74538;SDS011;66042;51.090;-115.340;2023-09-30T04:53:32;5.30;;;1.70;;
74538;SDS011;66042;51.090;-115.340;2023-09-30T04:55:59;6.50;;;1.90;;
74538;SDS011;66042;51.090;-115.340;2023-09-30T04:58:27;4.90;;;1.20;;
74538;SDS011;66042;51.090;-115.340;2023-09-30T05:00:55;4.70;;;1.30;;
74538;SDS011;66042;51.090;-115.340;2023-09-30T05:03:22;4.80;;;1.40;;
74538;SDS011;66042;51.090;-115.340;2023-09-30T05:05:52;6.60;;;1.50;;
74538;SDS011;66042;51.090;-115.340;2023-09-30T05:08:23;4.70;;;1.50;;
74538;SDS011;66042;51.090;-115.340;2023-09-30T05:10:50;4.60;;;1.50;;
74538;SDS011;66042;51.090;-115.340;2023-09-30T05:13:21;4.90;;;1.40;;
74538;SDS011;66042;51.090;-115.340;2023-09-30T05:15:52;4.90;;;1.70;;
74538;SDS011;66042;51.090;-115.340;2023-09-30T05:18:19;4.60;;;1.60;;
74538;SDS011;66042;51.090;-115.340;2023-09-30T05:20:46;5.80;;;1.60;;
74538;SDS011;66042;51.090;-115.340;2023-09-30T05:23:15;4.10;;;1.40;;
74538;SDS011;66042;51.090;-115.340;2023-09-30T05:25:43;4.00;;;1.50;;
74538;SDS011;66042;51.090;-115.340;2023-09-30T05:28:10;5.90;;;1.70;;
74538;SDS011;66042;51.090;-115.340;2023-09-30T05:30:39;2.80;;;1.00;;
74538;SDS011;66042;51.090;-115.340;2023-09-30T05:33:06;2.90;;;1.20;;
74538;SDS011;66042;51.090;-115.340;2023-09-30T05:35:33;3.90;;;1.10;;
74538;SDS011;66042;51.090;-115.340;2023-09-30T05:38:00;4.70;;;1.50;;
74538;SDS011;66042;51.090;-115.340;2023-09-30T05:40:30;4.70;;;1.60;;
74538;SDS011;66042;51.090;-115.340;2023-09-30T05:42:58;5.20;;;1.70;;
74538;SDS011;66042;51.090;-115.340;2023-09-30T05:45:26;5.90;;;1.80;;
74538;SDS011;66042;51.090;-115.340;2023-09-30T05:47:54;4.60;;;1.30;;
74538;SDS011;66042;51.090;-115.340;2023-09-30T05:50:23;6.30;;;1.40;;
74538;SDS011;66042;51.090;-115.340;2023-09-30T05:52:55;6.50;;;1.50;;
74538;SDS011;66042;51.090;-115.340;2023-09-30T05:55:22;5.60;;;1.70;;
74538;SDS011;66042;51.090;-115.340;2023-09-30T05:57:51;2.90;;;1.20;;
74538;SDS011;66042;51.090;-115.340;2023-09-30T06:00:18;3.90;;;1.40;;
74538;SDS011;66042;51.090;-115.340;2023-09-30T06:02:49;4.50;;;1.50;;
74538;SDS011;66042;51.090;-115.340;2023-09-30T06:05:17;4.80;;;1.60;;
74538;SDS011;66042;51.090;-115.340;2023-09-30T06:07:46;2.90;;;1.30;;
74538;SDS011;66042;51.090;-115.340;2023-09-30T06:10:13;4.20;;;1.70;;
74538;SDS011;66042;51.090;-115.340;2023-09-30T06:12:48;3.80;;;1.40;;
74538;SDS011;66042;51.090;-115.340;2023-09-30T06:15:25;3.30;;;1.00;;
74538;SDS011;66042;51.090;-115.340;2023-09-30T06:17:55;3.80;;;1.50;;
74538;SDS011;66042;51.090;-115.340;2023-09-30T06:20:23;4.90;;;1.50;;
74538;SDS011;66042;51.090;-115.340;2023-09-30T06:22:52;5.90;;;2.00;;
74538;SDS011;66042;51.090;-115.340;2023-09-30T06:25:22;4.30;;;1.90;;
74538;SDS011;66042;51.090;-115.340;2023-09-30T06:27:54;2.70;;;1.30;;
74538;SDS011;66042;51.090;-115.340;2023-09-30T06:30:21;2.00;;;0.60;;
74538;SDS011;66042;51.090;-115.340;2023-09-30T06:32:50;2.00;;;0.90;;
74538;SDS011;66042;51.090;-115.340;2023-09-30T06:35:17;5.20;;;1.30;;
74538;SDS011;66042;51.090;-115.340;2023-09-30T06:37:44;4.70;;;1.50;;
74538;SDS011;66042;51.090;-115.340;2023-09-30T06:40:11;4.80;;;1.10;;
74538;SDS011;66042;51.090;-115.340;2023-09-30T06:42:38;4.80;;;1.50;;
74538;SDS011;66042;51.090;-115.340;2023-09-30T06:45:09;6.60;;;1.70;;
74538;SDS011;66042;51.090;-115.340;2023-09-30T06:47:37;6.60;;;1.80;;
74538;SDS011;66042;51.090;-115.340;2023-09-30T06:50:12;6.10;;;2.00;;
74538;SDS011;66042;51.090;-115.340;2023-09-30T06:52:43;6.10;;;2.00;;
74538;SDS011;66042;51.090;-115.340;2023-09-30T06:55:15;6.60;;;1.80;;
74538;SDS011;66042;51.090;-115.340;2023-09-30T06:57:44;5.50;;;1.90;;
74538;SDS011;66042;51.090;-115.340;2023-09-30T07:00:13;5.10;;;2.00;;
74538;SDS011;66042;51.090;-115.340;2023-09-30T07:02:41;6.60;;;2.40;;
74538;SDS011;66042;51.090;-115.340;2023-09-30T07:05:09;7.50;;;2.00;;
74538;SDS011;66042;51.090;-115.340;2023-09-30T07:07:37;7.00;;;1.80;;
74538;SDS011;66042;51.090;-115.340;2023-09-30T07:10:06;6.70;;;2.20;;
74538;SDS011;66042;51.090;-115.340;2023-09-30T07:12:33;6.20;;;1.80;;
74538;SDS011;66042;51.090;-115.340;2023-09-30T07:15:02;5.90;;;1.70;;
74538;SDS011;66042;51.090;-115.340;2023-09-30T07:17:30;5.70;;;1.90;;
74538;SDS011;66042;51.090;-115.340;2023-09-30T07:19:58;4.50;;;1.60;;
74538;SDS011;66042;51.090;-115.340;2023-09-30T07:22:25;4.20;;;1.20;;
74538;SDS011;66042;51.090;-115.340;2023-09-30T07:24:52;4.10;;;1.30;;
74538;SDS011;66042;51.090;-115.340;2023-09-30T07:27:19;6.10;;;1.80;;
74538;SDS011;66042;51.090;-115.340;2023-09-30T07:29:46;4.80;;;1.70;;
74538;SDS011;66042;51.090;-115.340;2023-09-30T07:32:13;7.70;;;1.80;;
74538;SDS011;66042;51.090;-115.340;2023-09-30T07:34:41;3.90;;;1.80;;
74538;SDS011;66042;51.090;-115.340;2023-09-30T07:37:08;5.00;;;1.90;;
74538;SDS011;66042;51.090;-115.340;2023-09-30T07:39:38;3.80;;;1.40;;
74538;SDS011;66042;51.090;-115.340;2023-09-30T07:42:08;4.70;;;1.70;;
74538;SDS011;66042;51.090;-115.340;2023-09-30T07:44:35;5.30;;;1.70;;
74538;SDS011;66042;51.090;-115.340;2023-09-30T07:47:05;4.30;;;1.90;;
74538;SDS011;66042;51.090;-115.340;2023-09-30T07:49:35;4.90;;;2.00;;
74538;SDS011;66042;51.090;-115.340;2023-09-30T07:52:03;5.70;;;1.70;;
74538;SDS011;66042;51.090;-115.340;2023-09-30T07:54:30;4.80;;;1.50;;
74538;SDS011;66042;51.090;-115.340;2023-09-30T07:56:56;4.70;;;1.30;;
74538;SDS011;66042;51.090;-115.340;2023-09-30T07:59:27;4.90;;;1.80;;
74538;SDS011;66042;51.090;-115.340;2023-09-30T08:01:54;5.00;;;1.90;;
74538;SDS011;66042;51.090;-115.340;2023-09-30T08:04:23;3.80;;;1.40;;
74538;SDS011;66042;51.090;-115.340;2023-09-30T08:06:51;3.90;;;1.70;;
74538;SDS011;66042;51.090;-115.340;2023-09-30T08:09:19;3.30;;;1.10;;
74538;SDS011;66042;51.090;-115.340;2023-09-30T08:11:46;4.20;;;1.30;;
74538;SDS011;66042;51.090;-115.340;2023-09-30T08:14:13;5.10;;;1.30;;
74538;SDS011;66042;51.090;-115.340;2023-09-30T08:16:41;4.50;;;1.30;;
74538;SDS011;66042;51.090;-115.340;2023-09-30T08:19:09;5.10;;;1.30;;
74538;SDS011;66042;51.090;-115.340;2023-09-30T08:21:36;3.40;;;1.50;;
74538;SDS011;66042;51.090;-115.340;2023-09-30T08:24:03;4.50;;;1.70;;
74538;SDS011;66042;51.090;-115.340;2023-09-30T08:26:29;3.40;;;1.40;;
74538;SDS011;66042;51.090;-115.340;2023-09-30T08:28:56;3.40;;;1.40;;
74538;SDS011;66042;51.090;-115.340;2023-09-30T08:31:23;3.30;;;1.00;;
74538;SDS011;66042;51.090;-115.340;2023-09-30T08:33:50;3.80;;;1.20;;
74538;SDS011;66042;51.090;-115.340;2023-09-30T08:36:17;4.30;;;1.40;;
74538;SDS011;66042;51.090;-115.340;2023-09-30T08:38:45;4.70;;;1.30;;
74538;SDS011;66042;51.090;-115.340;2023-09-30T08:41:36;4.40;;;1.60;;
74538;SDS011;66042;51.090;-115.340;2023-09-30T08:44:03;4.40;;;1.40;;
74538;SDS011;66042;51.090;-115.340;2023-09-30T08:46:34;4.80;;;1.60;;
74538;SDS011;66042;51.090;-115.340;2023-09-30T08:49:03;5.30;;;2.00;;
74538;SDS011;66042;51.090;-115.340;2023-09-30T08:51:32;3.80;;;1.50;;
74538;SDS011;66042;51.090;-115.340;2023-09-30T08:54:00;4.10;;;1.60;;
74538;SDS011;66042;51.090;-115.340;2023-09-30T08:56:31;4.80;;;1.80;;
74538;SDS011;66042;51.090;-115.340;2023-09-30T08:59:02;3.60;;;1.60;;
74538;SDS011;66042;51.090;-115.340;2023-09-30T09:01:30;3.30;;;1.30;;
74538;SDS011;66042;51.090;-115.340;2023-09-30T09:03:58;4.10;;;1.40;;
74538;SDS011;66042;51.090;-115.340;2023-09-30T09:06:26;2.90;;;1.20;;
74538;SDS011;66042;51.090;-115.340;2023-09-30T09:08:53;4.30;;;1.50;;
74538;SDS011;66042;51.090;-115.340;2023-09-30T09:11:20;4.90;;;1.90;;
74538;SDS011;66042;51.090;-115.340;2023-09-30T09:13:51;3.00;;;1.20;;
74538;SDS011;66042;51.090;-115.340;2023-09-30T09:16:26;4.20;;;1.70;;
74538;SDS011;66042;51.090;-115.340;2023-09-30T09:18:52;5.50;;;1.50;;
74538;SDS011;66042;51.090;-115.340;2023-09-30T09:21:23;5.00;;;1.70;;
74538;SDS011;66042;51.090;-115.340;2023-09-30T09:23:53;7.10;;;1.80;;
74538;SDS011;66042;51.090;-115.340;2023-09-30T09:26:30;4.90;;;1.90;;
74538;SDS011;66042;51.090;-115.340;2023-09-30T09:29:04;5.40;;;1.70;;
74538;SDS011;66042;51.090;-115.340;2023-09-30T09:31:35;3.20;;;1.10;;
74538;SDS011;66042;51.090;-115.340;2023-09-30T09:34:04;5.30;;;1.30;;
74538;SDS011;66042;51.090;-115.340;2023-09-30T09:36:42;3.30;;;1.20;;
74538;SDS011;66042;51.090;-115.340;2023-09-30T09:39:11;4.20;;;1.60;;
74538;SDS011;66042;51.090;-115.340;2023-09-30T09:41:52;5.90;;;1.90;;
74538;SDS011;66042;51.090;-115.340;2023-09-30T09:44:23;7.60;;;2.50;;
74538;SDS011;66042;51.090;-115.340;2023-09-30T09:46:53;4.70;;;1.80;;
74538;SDS011;66042;51.090;-115.340;2023-09-30T09:49:22;5.50;;;1.90;;
74538;SDS011;66042;51.090;-115.340;2023-09-30T09:51:50;5.30;;;1.90;;
74538;SDS011;66042;51.090;-115.340;2023-09-30T09:54:20;5.00;;;1.90;;
74538;SDS011;66042;51.090;-115.340;2023-09-30T09:56:49;7.30;;;2.40;;
74538;SDS011;66042;51.090;-115.340;2023-09-30T09:59:24;5.60;;;1.70;;
74538;SDS011;66042;51.090;-115.340;2023-09-30T10:01:52;5.40;;;1.40;;
74538;SDS011;66042;51.090;-115.340;2023-09-30T10:04:20;4.90;;;1.30;;
74538;SDS011;66042;51.090;-115.340;2023-09-30T10:06:51;3.70;;;1.40;;
74538;SDS011;66042;51.090;-115.340;2023-09-30T10:09:20;3.00;;;1.00;;
74538;SDS011;66042;51.090;-115.340;2023-09-30T10:11:48;3.50;;;1.20;;
74538;SDS011;66042;51.090;-115.340;2023-09-30T10:14:31;4.20;;;1.10;;
74538;SDS011;66042;51.090;-115.340;2023-09-30T10:16:59;2.80;;;1.20;;
74538;SDS011;66042;51.090;-115.340;2023-09-30T10:19:27;4.00;;;1.70;;
74538;SDS011;66042;51.090;-115.340;2023-09-30T10:24:55;3.90;;;1.10;;
74538;SDS011;66042;51.090;-115.340;2023-09-30T10:30:13;3.70;;;1.60;;
74538;SDS011;66042;51.090;-115.340;2023-09-30T10:35:17;4.80;;;1.50;;
74538;SDS011;66042;51.090;-115.340;2023-09-30T10:37:45;3.30;;;1.00;;
74538;SDS011;66042;51.090;-115.340;2023-09-30T10:40:29;3.70;;;1.20;;
74538;SDS011;66042;51.090;-115.340;2023-09-30T10:43:00;3.60;;;1.30;;
74538;SDS011;66042;51.090;-115.340;2023-09-30T10:51:16;4.80;;;1.70;;
74538;SDS011;66042;51.090;-115.340;2023-09-30T10:53:52;3.90;;;0.90;;
74538;SDS011;66042;51.090;-115.340;2023-09-30T10:56:26;3.70;;;1.30;;
74538;SDS011;66042;51.090;-115.340;2023-09-30T10:59:00;3.90;;;1.30;;
74538;SDS011;66042;51.090;-115.340;2023-09-30T11:01:35;2.80;;;0.90;;
74538;SDS011;66042;51.090;-115.340;2023-09-30T11:04:03;3.80;;;1.20;;
74538;SDS011;66042;51.090;-115.340;2023-09-30T11:06:31;4.20;;;1.10;;
74538;SDS011;66042;51.090;-115.340;2023-09-30T11:09:00;2.50;;;1.20;;
74538;SDS011;66042;51.090;-115.340;2023-09-30T11:11:41;4.40;;;1.90;;
74538;SDS011;66042;51.090;-115.340;2023-09-30T11:16:51;3.20;;;1.00;;
74538;SDS011;66042;51.090;-115.340;2023-09-30T11:19:20;3.80;;;1.20;;
74538;SDS011;66042;51.090;-115.340;2023-09-30T11:21:54;3.20;;;1.10;;
74538;SDS011;66042;51.090;-115.340;2023-09-30T11:24:22;5.00;;;1.70;;
74538;SDS011;66042;51.090;-115.340;2023-09-30T11:26:53;3.40;;;1.50;;
74538;SDS011;66042;51.090;-115.340;2023-09-30T11:29:22;3.30;;;1.20;;
74538;SDS011;66042;51.090;-115.340;2023-09-30T11:31:49;5.20;;;1.40;;
74538;SDS011;66042;51.090;-115.340;2023-09-30T11:34:19;4.20;;;1.50;;
74538;SDS011;66042;51.090;-115.340;2023-09-30T11:36:58;4.50;;;1.40;;
74538;SDS011;66042;51.090;-115.340;2023-09-30T11:39:29;5.80;;;1.50;;
74538;SDS011;66042;51.090;-115.340;2023-09-30T11:41:57;4.70;;;1.60;;
74538;SDS011;66042;51.090;-115.340;2023-09-30T11:44:24;4.30;;;1.10;;
74538;SDS011;66042;51.090;-115.340;2023-09-30T11:47:02;3.90;;;1.60;;
74538;SDS011;66042;51.090;-115.340;2023-09-30T11:49:36;3.80;;;1.40;;
74538;SDS011;66042;51.090;-115.340;2023-09-30T11:54:37;4.40;;;1.90;;
74538;SDS011;66042;51.090;-115.340;2023-09-30T11:57:13;4.50;;;1.60;;
74538;SDS011;66042;51.090;-115.340;2023-09-30T11:59:42;3.80;;;1.70;;
74538;SDS011;66042;51.090;-115.340;2023-09-30T12:02:15;5.90;;;1.70;;
74538;SDS011;66042;51.090;-115.340;2023-09-30T12:04:46;3.10;;;1.30;;
74538;SDS011;66042;51.090;-115.340;2023-09-30T12:07:15;3.30;;;1.20;;
74538;SDS011;66042;51.090;-115.340;2023-09-30T12:09:42;3.70;;;1.00;;
74538;SDS011;66042;51.090;-115.340;2023-09-30T12:12:09;4.40;;;1.60;;
74538;SDS011;66042;51.090;-115.340;2023-09-30T12:14:36;4.60;;;1.80;;
74538;SDS011;66042;51.090;-115.340;2023-09-30T12:17:03;3.60;;;1.30;;
74538;SDS011;66042;51.090;-115.340;2023-09-30T12:19:30;5.30;;;1.60;;
74538;SDS011;66042;51.090;-115.340;2023-09-30T12:21:57;5.80;;;1.40;;
74538;SDS011;66042;51.090;-115.340;2023-09-30T12:24:24;4.40;;;1.70;;
74538;SDS011;66042;51.090;-115.340;2023-09-30T12:26:52;4.10;;;1.70;;
74538;SDS011;66042;51.090;-115.340;2023-09-30T12:29:20;4.70;;;1.90;;
74538;SDS011;66042;51.090;-115.340;2023-09-30T12:31:50;7.70;;;2.30;;
74538;SDS011;66042;51.090;-115.340;2023-09-30T12:34:18;8.60;;;2.00;;
74538;SDS011;66042;51.090;-115.340;2023-09-30T12:36:45;6.60;;;2.60;;
74538;SDS011;66042;51.090;-115.340;2023-09-30T12:39:13;5.90;;;2.30;;
74538;SDS011;66042;51.090;-115.340;2023-09-30T12:41:43;9.60;;;2.40;;
74538;SDS011;66042;51.090;-115.340;2023-09-30T12:44:11;7.10;;;2.50;;
74538;SDS011;66042;51.090;-115.340;2023-09-30T12:46:38;3.70;;;1.50;;
74538;SDS011;66042;51.090;-115.340;2023-09-30T12:49:07;4.10;;;1.80;;
74538;SDS011;66042;51.090;-115.340;2023-09-30T12:51:35;5.10;;;1.40;;
74538;SDS011;66042;51.090;-115.340;2023-09-30T12:54:02;6.20;;;2.20;;
74538;SDS011;66042;51.090;-115.340;2023-09-30T12:56:30;6.40;;;1.60;;
74538;SDS011;66042;51.090;-115.340;2023-09-30T12:58:58;5.50;;;1.80;;
74538;SDS011;66042;51.090;-115.340;2023-09-30T13:01:25;6.00;;;1.90;;
74538;SDS011;66042;51.090;-115.340;2023-09-30T13:03:54;4.50;;;1.60;;
74538;SDS011;66042;51.090;-115.340;2023-09-30T13:06:20;6.90;;;1.70;;
74538;SDS011;66042;51.090;-115.340;2023-09-30T13:08:47;5.40;;;1.80;;
74538;SDS011;66042;51.090;-115.340;2023-09-30T13:11:14;7.30;;;1.90;;
74538;SDS011;66042;51.090;-115.340;2023-09-30T13:13:42;5.40;;;2.00;;
74538;SDS011;66042;51.090;-115.340;2023-09-30T13:16:10;5.20;;;1.90;;
74538;SDS011;66042;51.090;-115.340;2023-09-30T13:18:38;5.80;;;2.20;;
74538;SDS011;66042;51.090;-115.340;2023-09-30T13:21:05;5.30;;;2.60;;
74538;SDS011;66042;51.090;-115.340;2023-09-30T13:23:33;7.30;;;2.60;;
74538;SDS011;66042;51.090;-115.340;2023-09-30T13:26:01;7.00;;;2.10;;
74538;SDS011;66042;51.090;-115.340;2023-09-30T13:28:29;5.80;;;2.20;;
74538;SDS011;66042;51.090;-115.340;2023-09-30T13:30:56;5.70;;;2.20;;
74538;SDS011;66042;51.090;-115.340;2023-09-30T13:33:23;5.80;;;2.00;;
74538;SDS011;66042;51.090;-115.340;2023-09-30T13:35:50;4.60;;;1.80;;
74538;SDS011;66042;51.090;-115.340;2023-09-30T13:38:17;7.00;;;2.10;;
74538;SDS011;66042;51.090;-115.340;2023-09-30T13:40:45;8.00;;;2.70;;
74538;SDS011;66042;51.090;-115.340;2023-09-30T13:43:12;8.20;;;3.00;;
74538;SDS011;66042;51.090;-115.340;2023-09-30T13:45:39;7.90;;;2.20;;
74538;SDS011;66042;51.090;-115.340;2023-09-30T13:48:07;7.20;;;2.00;;
74538;SDS011;66042;51.090;-115.340;2023-09-30T13:50:34;6.00;;;2.30;;
74538;SDS011;66042;51.090;-115.340;2023-09-30T13:53:01;7.20;;;2.60;;
74538;SDS011;66042;51.090;-115.340;2023-09-30T13:55:29;5.50;;;2.20;;
74538;SDS011;66042;51.090;-115.340;2023-09-30T13:57:56;6.90;;;2.60;;
74538;SDS011;66042;51.090;-115.340;2023-09-30T14:00:23;6.40;;;2.20;;
74538;SDS011;66042;51.090;-115.340;2023-09-30T14:02:50;5.70;;;2.80;;
74538;SDS011;66042;51.090;-115.340;2023-09-30T14:05:17;6.80;;;2.10;;
74538;SDS011;66042;51.090;-115.340;2023-09-30T14:07:45;5.20;;;2.00;;
74538;SDS011;66042;51.090;-115.340;2023-09-30T14:10:12;7.00;;;2.60;;
74538;SDS011;66042;51.090;-115.340;2023-09-30T14:12:40;6.70;;;2.40;;
74538;SDS011;66042;51.090;-115.340;2023-09-30T14:15:08;6.70;;;2.10;;
74538;SDS011;66042;51.090;-115.340;2023-09-30T14:17:35;6.10;;;2.40;;
74538;SDS011;66042;51.090;-115.340;2023-09-30T14:20:03;7.80;;;2.60;;
74538;SDS011;66042;51.090;-115.340;2023-09-30T14:22:31;4.10;;;2.00;;
74538;SDS011;66042;51.090;-115.340;2023-09-30T14:24:57;5.40;;;2.10;;
74538;SDS011;66042;51.090;-115.340;2023-09-30T14:27:24;4.40;;;1.70;;
74538;SDS011;66042;51.090;-115.340;2023-09-30T14:29:52;4.40;;;1.90;;
74538;SDS011;66042;51.090;-115.340;2023-09-30T14:32:19;4.70;;;2.00;;
74538;SDS011;66042;51.090;-115.340;2023-09-30T14:34:46;5.90;;;2.00;;